Portada
METAR-TAF:

METAR-TAF

Aeroports :

Shantou, Xina

latitud: 23-24N, longitud: 116-41E, altitud: 3 m

Observació

L'informe es va fer fa 1 hora i 5 minuts, a les 03:00 UTC
Vent 10 kt del Nord/Nord-Est, variant entre Nord i Est/Nord-Est
Temperatura 28°C
Humitat 48%
Pressió 1021 hPa
Visibilitat 10 km o més
Escasses núvols a una alçada de 5000 ft

METAR: ZGOW 150300Z 03005MPS 360V060 9999 FEW050 28/16 Q1021 NOSIG

Hora: 12:05 (04:05 UTC)

Pronòstic

L'informe es va fer fa 9 hores i 0 minuts, a les 19:05 UTC
Pronòstic vàlid del 15 a les 00 UTC al 15 a les 24 UTC
Vent 6 kt del Nord/Nord-Est
Visibilitat: 6000 m
Escasses núvols a una alçada de 2000 ft
Núvols disperses a una alçada de 4000 ft

TAF: ZGOW 141905Z 1500/1524 02003MPS 6000 FEW020 SCT040 TX29/1506Z TN22/1522Z

Observacions i pronòstics meteorològics de més de 4000 aeroports (METAR i TAF).

Les estacions disponibles són els punts grocs i vermells al mapa.

Posi el ratolí al punt desitjat per veure el nom de l'estació.

Feu clic per veure les observacions i els pronòstics meteorològics.

Per canviar el mapa: feu clic els botons verds amb una creu de color negre per apropar; al botó verd amb un guió per allunyar la imatge; o en les fletxes verdes per a mapes adjacents.


METAR-TAF: